Map

Track Data

SID SEASON NUMBER BASIN SUBBASIN NAME ISO_TIME NATURE LAT LON WMO_WIND WMO_PRES WMO_AGENCY TRACK_TYPE DIST2LAND LANDFALL IFLAG USA_AGENCY USA_ATCF_ID USA_LAT USA_LON USA_RECORD USA_STATUS USA_WIND USA_PRES USA_SSHS USA_R34_NE USA_R34_SE USA_R34_SW USA_R34_NW USA_R50_NE USA_R50_SE USA_R50_SW USA_R50_NW USA_R64_NE USA_R64_SE USA_R64_SW USA_R64_NW USA_POCI USA_ROCI USA_RMW USA_EYE TOKYO_LAT TOKYO_LON TOKYO_GRADE TOKYO_WIND TOKYO_PRES TOKYO_R50_DIR TOKYO_R50_LONG TOKYO_R50_SHORT TOKYO_R30_DIR TOKYO_R30_LONG TOKYO_R30_SHORT TOKYO_LAND CMA_LAT CMA_LON CMA_CAT CMA_WIND CMA_PRES HKO_LAT HKO_LON HKO_CAT HKO_WIND HKO_PRES NEWDELHI_LAT NEWDELHI_LON NEWDELHI_GRADE NEWDELHI_WIND NEWDELHI_PRES NEWDELHI_CI NEWDELHI_DP NEWDELHI_POCI REUNION_LAT REUNION_LON REUNION_TYPE REUNION_WIND REUNION_PRES REUNION_TNUM REUNION_CI REUNION_RMW REUNION_R34_NE REUNION_R34_SE REUNION_R34_SW REUNION_R34_NW REUNION_R50_NE REUNION_R50_SE REUNION_R50_SW REUNION_R50_NW REUNION_R64_NE REUNION_R64_SE REUNION_R64_SW REUNION_R64_NW BOM_LAT BOM_LON BOM_TYPE BOM_WIND BOM_PRES BOM_TNUM BOM_CI BOM_RMW BOM_R34_NE BOM_R34_SE BOM_R34_SW BOM_R34_NW BOM_R50_NE BOM_R50_SE BOM_R50_SW BOM_R50_NW BOM_R64_NE BOM_R64_SE BOM_R64_SW BOM_R64_NW BOM_ROCI BOM_POCI BOM_EYE BOM_POS_METHOD BOM_PRES_METHOD NADI_LAT NADI_LON NADI_CAT NADI_WIND NADI_PRES WELLINGTON_LAT WELLINGTON_LON WELLINGTON_WIND WELLINGTON_PRES DS824_LAT DS824_LON DS824_STAGE DS824_WIND DS824_PRES TD9636_LAT TD9636_LON TD9636_STAGE TD9636_WIND TD9636_PRES TD9635_LAT TD9635_LON TD9635_WIND TD9635_PRES TD9635_ROCI NEUMANN_LAT NEUMANN_LON NEUMANN_CLASS NEUMANN_WIND NEUMANN_PRES MLC_LAT MLC_LON MLC_CLASS MLC_WIND MLC_PRES USA_GUST BOM_GUST BOM_GUST_PER REUNION_GUST REUNION_GUST_PER USA_SEAHGT USA_SEARAD_NE USA_SEARAD_SE USA_SEARAD_SW USA_SEARAD_NW STORM_SPEED STORM_DIR
1893268N14128 1893 49 WP MM NOT_NAMED 1893-09-24 16:00:00 NR 14.3000 127.900 main 350 342 __________O___ -1 14.3000 127.900 3 5 288
1893268N14128 1893 49 WP MM NOT_NAMED 1893-09-24 18:00:00 NR 14.3568 127.723 main 342 319 __________P___ -1 14.3568 127.723 3 6 288
1893268N14128 1893 49 WP MM NOT_NAMED 1893-09-24 21:00:00 NR 14.4456 127.443 main 319 298 __________P___ -1 14.4456 127.443 3 6 288
1893268N14128 1893 49 WP MM NOT_NAMED 1893-09-25 00:00:00 NR 14.5440 127.124 main 298 263 __________P___ -1 14.5440 127.124 3 7 287
1893268N14128 1893 49 WP MM NOT_NAMED 1893-09-25 03:00:00 NR 14.6577 126.744 main 263 253 __________P___ -1 14.6577 126.744 3 8 287
1893268N14128 1893 49 WP MM NOT_NAMED 1893-09-25 04:00:00 NR 14.7000 126.600 main 253 228 __________O___ -1 14.7000 126.600 4 9 287
1893268N14128 1893 49 WP MM NOT_NAMED 1893-09-25 06:00:00 NR 14.7915 126.283 main 228 187 __________P___ -1 14.7915 126.283 4 10 286
1893268N14128 1893 49 WP MM NOT_NAMED 1893-09-25 09:00:00 NR 14.9414 125.756 main 187 156 __________P___ -1 14.9414 125.756 4 11 286
1893268N14128 1893 49 WP MM NOT_NAMED 1893-09-25 12:00:00 NR 15.0976 125.204 main 156 141 __________P___ -1 15.0976 125.204 4 11 286
1893268N14128 1893 49 WP MM NOT_NAMED 1893-09-25 15:00:00 NR 15.2511 124.668 main 151 147 __________P___ -1 15.2511 124.668 4 11 287
1893268N14128 1893 49 WP MM NOT_NAMED 1893-09-25 16:00:00 NR 15.3000 124.500 main 147 145 __________O___ -1 15.3000 124.500 4 9 287
1893268N14128 1893 49 WP MM NOT_NAMED 1893-09-25 18:00:00 NR 15.3833 124.212 main 156 156 __________P___ -1 15.3833 124.212 4 8 287
1893268N14128 1893 49 WP MM NOT_NAMED 1893-09-25 21:00:00 NR 15.5021 123.813 main 170 144 __________P___ -1 15.5021 123.813 4 8 288
1893268N14128 1893 49 WP MM NOT_NAMED 1893-09-26 00:00:00 NR 15.6221 123.429 main 144 96 __________P___ -1 15.6221 123.429 4 8 289
1893268N14128 1893 49 WP MM NOT_NAMED 1893-09-26 03:00:00 NR 15.7526 123.037 main 96 87 __________P___ -1 15.7526 123.037 4 8 289
1893268N14128 1893 49 WP MM NOT_NAMED 1893-09-26 04:00:00 NR 15.8000 122.900 main 87 54 __________O___ -1 15.8000 122.900 4 9 290
1893268N14128 1893 49 WP MM NOT_NAMED 1893-09-26 06:00:00 NR 15.9053 122.590 main 54 0 __________P___ -1 15.9053 122.590 4 10 290
1893268N14128 1893 49 WP MM NOT_NAMED 1893-09-26 09:00:00 NR 16.0760 122.106 main 0 0 __________P___ -1 16.0760 122.106 4 10 291
1893268N14128 1893 49 WP MM NOT_NAMED 1893-09-26 12:00:00 NR 16.2560 121.618 main 0 0 __________P___ -1 16.2560 121.618 4 10 292
1893268N14128 1893 49 WP MM NOT_NAMED 1893-09-26 15:00:00 NR 16.4393 121.149 main 0 0 __________P___ -1 16.4393 121.149 4 10 292
1893268N14128 1893 49 WP MM NOT_NAMED 1893-09-26 16:00:00 NR 16.5000 121.000 main 0 0 __________O___ -1 16.5000 121.000 4 8 292
1893268N14128 1893 49 WP MM NOT_NAMED 1893-09-26 18:00:00 NR 16.6004 120.740 main 0 0 __________P___ -1 16.6004 120.740 4 8 293
1893268N14128 1893 49 WP MM NOT_NAMED 1893-09-26 21:00:00 NR 16.7509 120.375 main 0 0 __________P___ -1 16.7509 120.375 4 8 295
1893268N14128 1893 49 WP MM NOT_NAMED 1893-09-27 00:00:00 NR 16.9183 120.017 main 44 44 __________P___ -1 16.9183 120.017 4 8 298
1893268N14128 1893 49 WP MM NOT_NAMED 1893-09-27 03:00:00 NR 17.1212 119.636 main 85 84 __________P___ -1 17.1212 119.636 4 9 300
1893268N14128 1893 49 WP MM NOT_NAMED 1893-09-27 04:00:00 NR 17.2000 119.500 main 95 95 __________O___ -1 17.2000 119.500 4 10 303
1893268N14128 1893 49 WP MM NOT_NAMED 1893-09-27 06:00:00 NR 17.3956 119.190 main 118 118 __________P___ -1 17.3956 119.190 4 11 304
1893268N14128 1893 49 WP MM NOT_NAMED 1893-09-27 09:00:00 NR 17.7272 118.694 main 169 169 __________P___ -1 17.7272 118.694 4 12 305
1893268N14128 1893 49 WP MM NOT_NAMED 1893-09-27 12:00:00 NR 18.0738 118.179 main 229 229 __________P___ -1 18.0738 118.179 4 12 305
1893268N14128 1893 49 WP MM NOT_NAMED 1893-09-27 15:00:00 NR 18.4011 117.666 main 289 299 __________P___ -1 18.4011 117.666 4 12 303
1893268N14128 1893 49 WP MM NOT_NAMED 1893-09-27 16:00:00 NR 18.5000 117.500 main 312 312 __________O___ -1 18.5000 117.500 4 10 302
1893268N14128 1893 49 WP MM NOT_NAMED 1893-09-27 18:00:00 NR 18.6714 117.217 main 349 349 __________P___ -1 18.6714 117.217 4 9 301
1893268N14128 1893 49 WP MM NOT_NAMED 1893-09-27 21:00:00 NR 18.8976 116.806 main 397 397 __________P___ -1 18.8976 116.806 4 9 298
1893268N14128 1893 49 WP MM NOT_NAMED 1893-09-28 00:00:00 NR 19.0901 116.375 main 407 372 __________P___ -1 19.0901 116.375 4 9 292
1893268N14128 1893 49 WP MM NOT_NAMED 1893-09-28 03:00:00 NR 19.2522 115.884 main 372 365 __________P___ -1 19.2522 115.884 4 10 288
1893268N14128 1893 49 WP MM NOT_NAMED 1893-09-28 04:00:00 NR 19.3000 115.700 main 365 340 __________O___ -1 19.3000 115.700 4 12 284
1893268N14128 1893 49 WP MM NOT_NAMED 1893-09-28 06:00:00 NR 19.3978 115.277 main 340 314 __________P___ -1 19.3978 115.277 4 13 282
1893268N14128 1893 49 WP MM NOT_NAMED 1893-09-28 09:00:00 NR 19.5191 114.573 main 314 270 __________P___ -1 19.5191 114.573 4 14 279
1893268N14128 1893 49 WP MM NOT_NAMED 1893-09-28 12:00:00 NR 19.6126 113.818 main 270 220 __________P___ -1 19.6126 113.818 4 14 276
1893268N14128 1893 49 WP MM NOT_NAMED 1893-09-28 15:00:00 NR 19.6817 113.052 main 220 188 __________P___ -1 19.6817 113.052 4 14 275
1893268N14128 1893 49 WP MM NOT_NAMED 1893-09-28 16:00:00 NR 19.7000 112.800 main 188 136 __________O___ -1 19.7000 112.800 4 14 274
1893268N14128 1893 49 WP MM NOT_NAMED 1893-09-28 18:00:00 NR 19.7304 112.308 main 136 66 __________P___ -1 19.7304 112.308 4 14 273
1893268N14128 1893 49 WP MM NOT_NAMED 1893-09-28 21:00:00 NR 19.7630 111.595 main 66 0 __________P___ -1 19.7630 111.595 4 13 272
1893268N14128 1893 49 WP MM NOT_NAMED 1893-09-29 00:00:00 NR 19.7837 110.904 main 0 0 __________P___ -1 19.7837 110.904 4 13 271
1893268N14128 1893 49 WP MM NOT_NAMED 1893-09-29 03:00:00 NR 19.7967 110.225 main 0 0 __________P___ -1 19.7967 110.225 4 13 271
1893268N14128 1893 49 WP MM NOT_NAMED 1893-09-29 04:00:00 NR 19.8000 110.000 main 0 __________O___ -1 19.8000 110.000 4 13 271

Digital Typhoon Data and Search

About IBTrACS Database

This database is a web-friendly format of International Best Track Archive for Climate Stewardship (IBTrACS), a global best track data archive curated by NOAA dating back to 1842.

Updated: 2021-10-27